sensor_id;sensor_type;location;lat;lon;timestamp;temperature;humidity
6164;DHT22;3114;48.362;10.994;2022-10-15T00:00:06;15.40;99.90
6164;DHT22;3114;48.362;10.994;2022-10-15T00:02:33;15.50;99.90
6164;DHT22;3114;48.362;10.994;2022-10-15T00:05:00;15.50;99.90
6164;DHT22;3114;48.362;10.994;2022-10-15T00:07:27;15.60;99.90
6164;DHT22;3114;48.362;10.994;2022-10-15T00:09:54;15.60;99.90
6164;DHT22;3114;48.362;10.994;2022-10-15T00:12:23;15.60;99.90
6164;DHT22;3114;48.362;10.994;2022-10-15T00:14:49;15.70;99.90
6164;DHT22;3114;48.362;10.994;2022-10-15T00:17:16;15.70;99.90
6164;DHT22;3114;48.362;10.994;2022-10-15T00:19:43;15.70;99.90
6164;DHT22;3114;48.362;10.994;2022-10-15T00:22:10;15.50;99.90
6164;DHT22;3114;48.362;10.994;2022-10-15T00:24:37;15.30;99.90
6164;DHT22;3114;48.362;10.994;2022-10-15T00:27:03;15.40;99.90
6164;DHT22;3114;48.362;10.994;2022-10-15T00:29:32;15.40;99.90
6164;DHT22;3114;48.362;10.994;2022-10-15T00:31:58;15.40;99.90
6164;DHT22;3114;48.362;10.994;2022-10-15T00:34:25;15.30;99.90
6164;DHT22;3114;48.362;10.994;2022-10-15T00:36:52;15.40;99.90
6164;DHT22;3114;48.362;10.994;2022-10-15T00:39:19;15.40;99.90
6164;DHT22;3114;48.362;10.994;2022-10-15T00:41:46;15.50;99.90
6164;DHT22;3114;48.362;10.994;2022-10-15T00:44:50;15.30;99.90
6164;DHT22;3114;48.362;10.994;2022-10-15T00:47:19;15.40;99.90
6164;DHT22;3114;48.362;10.994;2022-10-15T00:49:55;15.50;99.90
6164;DHT22;3114;48.362;10.994;2022-10-15T00:52:28;15.50;99.90
6164;DHT22;3114;48.362;10.994;2022-10-15T00:55:00;15.60;99.90
6164;DHT22;3114;48.362;10.994;2022-10-15T00:57:30;15.60;99.90
6164;DHT22;3114;48.362;10.994;2022-10-15T01:00:02;15.50;99.90
6164;DHT22;3114;48.362;10.994;2022-10-15T01:02:30;15.30;99.90
6164;DHT22;3114;48.362;10.994;2022-10-15T01:04:56;15.30;99.90
6164;DHT22;3114;48.362;10.994;2022-10-15T01:07:23;15.20;99.90
6164;DHT22;3114;48.362;10.994;2022-10-15T01:09:50;15.20;99.90
6164;DHT22;3114;48.362;10.994;2022-10-15T01:12:26;14.90;99.90
6164;DHT22;3114;48.362;10.994;2022-10-15T01:15:02;14.80;99.90
6164;DHT22;3114;48.362;10.994;2022-10-15T01:17:36;14.90;99.90
6164;DHT22;3114;48.362;10.994;2022-10-15T01:20:26;14.80;99.90
6164;DHT22;3114;48.362;10.994;2022-10-15T01:23:10;14.70;99.90
6164;DHT22;3114;48.362;10.994;2022-10-15T01:25:47;14.80;99.90
6164;DHT22;3114;48.362;10.994;2022-10-15T01:28:23;14.80;99.90
6164;DHT22;3114;48.362;10.994;2022-10-15T01:30:57;14.90;99.90
6164;DHT22;3114;48.362;10.994;2022-10-15T01:33:30;14.70;99.90
6164;DHT22;3114;48.362;10.994;2022-10-15T01:36:07;14.90;99.90
6164;DHT22;3114;48.362;10.994;2022-10-15T01:38:47;15.10;99.90
6164;DHT22;3114;48.362;10.994;2022-10-15T01:41:18;15.00;99.90
6164;DHT22;3114;48.362;10.994;2022-10-15T01:43:52;14.90;99.90
6164;DHT22;3114;48.362;10.994;2022-10-15T01:46:26;14.80;99.90
6164;DHT22;3114;48.362;10.994;2022-10-15T01:48:57;14.80;99.90
6164;DHT22;3114;48.362;10.994;2022-10-15T01:51:24;14.80;99.90
6164;DHT22;3114;48.362;10.994;2022-10-15T01:53:52;14.60;99.90
6164;DHT22;3114;48.362;10.994;2022-10-15T01:56:21;14.40;99.90
6164;DHT22;3114;48.362;10.994;2022-10-15T01:58:52;14.50;99.90
6164;DHT22;3114;48.362;10.994;2022-10-15T02:01:21;14.70;99.90
6164;DHT22;3114;48.362;10.994;2022-10-15T02:03:50;14.70;99.90
6164;DHT22;3114;48.362;10.994;2022-10-15T02:06:22;14.60;99.90
6164;DHT22;3114;48.362;10.994;2022-10-15T02:09:03;14.60;99.90
6164;DHT22;3114;48.362;10.994;2022-10-15T02:11:46;14.70;99.90
6164;DHT22;3114;48.362;10.994;2022-10-15T02:14:20;14.70;99.90
6164;DHT22;3114;48.362;10.994;2022-10-15T02:16:56;14.50;99.90
6164;DHT22;3114;48.362;10.994;2022-10-15T02:19:31;14.60;99.90
6164;DHT22;3114;48.362;10.994;2022-10-15T02:22:07;14.50;99.90
6164;DHT22;3114;48.362;10.994;2022-10-15T02:24:37;14.50;99.90
6164;DHT22;3114;48.362;10.994;2022-10-15T02:27:07;14.40;99.90
6164;DHT22;3114;48.362;10.994;2022-10-15T02:29:35;14.50;99.90
6164;DHT22;3114;48.362;10.994;2022-10-15T02:32:04;14.60;99.90
6164;DHT22;3114;48.362;10.994;2022-10-15T02:34:33;14.50;99.90
6164;DHT22;3114;48.362;10.994;2022-10-15T02:37:04;14.50;99.90
6164;DHT22;3114;48.362;10.994;2022-10-15T02:39:32;14.40;99.90
6164;DHT22;3114;48.362;10.994;2022-10-15T02:42:00;14.40;99.90
6164;DHT22;3114;48.362;10.994;2022-10-15T02:44:27;14.30;99.90
6164;DHT22;3114;48.362;10.994;2022-10-15T02:46:54;14.30;99.90
6164;DHT22;3114;48.362;10.994;2022-10-15T02:49:21;14.40;99.90
6164;DHT22;3114;48.362;10.994;2022-10-15T02:51:49;14.40;99.90
6164;DHT22;3114;48.362;10.994;2022-10-15T02:54:16;14.40;99.90
6164;DHT22;3114;48.362;10.994;2022-10-15T02:56:43;14.40;99.90
6164;DHT22;3114;48.362;10.994;2022-10-15T02:59:10;14.40;99.90
6164;DHT22;3114;48.362;10.994;2022-10-15T03:01:37;14.30;99.90
6164;DHT22;3114;48.362;10.994;2022-10-15T03:04:04;14.20;99.90
6164;DHT22;3114;48.362;10.994;2022-10-15T03:06:31;14.20;99.90
6164;DHT22;3114;48.362;10.994;2022-10-15T03:08:59;14.10;99.90
6164;DHT22;3114;48.362;10.994;2022-10-15T03:11:26;14.10;99.90
6164;DHT22;3114;48.362;10.994;2022-10-15T03:13:53;14.20;97.90
6164;DHT22;3114;48.362;10.994;2022-10-15T03:16:19;14.20;99.00
6164;DHT22;3114;48.362;10.994;2022-10-15T03:18:46;14.20;99.90
6164;DHT22;3114;48.362;10.994;2022-10-15T03:21:13;14.20;99.90
6164;DHT22;3114;48.362;10.994;2022-10-15T03:23:40;14.20;99.90
6164;DHT22;3114;48.362;10.994;2022-10-15T03:26:08;14.10;99.90
6164;DHT22;3114;48.362;10.994;2022-10-15T03:28:35;14.30;99.90
6164;DHT22;3114;48.362;10.994;2022-10-15T03:31:02;14.30;99.90
6164;DHT22;3114;48.362;10.994;2022-10-15T03:33:29;14.30;99.90
6164;DHT22;3114;48.362;10.994;2022-10-15T03:35:56;14.40;99.90
6164;DHT22;3114;48.362;10.994;2022-10-15T03:38:23;14.40;99.90
6164;DHT22;3114;48.362;10.994;2022-10-15T03:40:49;14.40;99.90
6164;DHT22;3114;48.362;10.994;2022-10-15T03:43:18;14.40;99.90
6164;DHT22;3114;48.362;10.994;2022-10-15T03:45:44;14.40;99.90
6164;DHT22;3114;48.362;10.994;2022-10-15T03:48:11;14.50;99.90
6164;DHT22;3114;48.362;10.994;2022-10-15T03:50:38;14.40;99.90
6164;DHT22;3114;48.362;10.994;2022-10-15T03:53:05;14.40;99.90
6164;DHT22;3114;48.362;10.994;2022-10-15T03:55:32;14.40;99.90
6164;DHT22;3114;48.362;10.994;2022-10-15T03:57:59;14.40;99.90
6164;DHT22;3114;48.362;10.994;2022-10-15T04:00:28;14.40;99.90
6164;DHT22;3114;48.362;10.994;2022-10-15T04:02:55;14.40;99.90
6164;DHT22;3114;48.362;10.994;2022-10-15T04:05:21;14.40;99.90
6164;DHT22;3114;48.362;10.994;2022-10-15T04:07:48;14.40;99.90
6164;DHT22;3114;48.362;10.994;2022-10-15T04:10:15;14.40;99.90
6164;DHT22;3114;48.362;10.994;2022-10-15T04:12:42;14.40;99.90
6164;DHT22;3114;48.362;10.994;2022-10-15T04:15:09;14.40;99.90
6164;DHT22;3114;48.362;10.994;2022-10-15T04:17:37;14.40;99.90
6164;DHT22;3114;48.362;10.994;2022-10-15T04:20:05;14.40;99.90
6164;DHT22;3114;48.362;10.994;2022-10-15T04:22:32;14.40;99.90
6164;DHT22;3114;48.362;10.994;2022-10-15T04:24:59;14.50;99.90
6164;DHT22;3114;48.362;10.994;2022-10-15T04:27:25;14.50;99.90
6164;DHT22;3114;48.362;10.994;2022-10-15T04:29:52;14.50;99.90
6164;DHT22;3114;48.362;10.994;2022-10-15T04:32:19;14.40;99.90
6164;DHT22;3114;48.362;10.994;2022-10-15T04:34:48;14.50;99.90
6164;DHT22;3114;48.362;10.994;2022-10-15T04:37:15;14.50;99.90
6164;DHT22;3114;48.362;10.994;2022-10-15T04:39:42;14.50;99.90
6164;DHT22;3114;48.362;10.994;2022-10-15T04:42:09;14.50;99.90
6164;DHT22;3114;48.362;10.994;2022-10-15T04:44:36;14.50;99.90
6164;DHT22;3114;48.362;10.994;2022-10-15T04:47:03;14.50;99.90
6164;DHT22;3114;48.362;10.994;2022-10-15T04:49:29;14.60;99.90
6164;DHT22;3114;48.362;10.994;2022-10-15T04:51:58;14.60;99.90
6164;DHT22;3114;48.362;10.994;2022-10-15T04:54:24;14.60;99.90
6164;DHT22;3114;48.362;10.994;2022-10-15T04:56:51;14.50;99.90
6164;DHT22;3114;48.362;10.994;2022-10-15T04:59:18;14.50;99.90
6164;DHT22;3114;48.362;10.994;2022-10-15T05:01:45;14.50;70.20
6164;DHT22;3114;48.362;10.994;2022-10-15T05:04:12;14.50;52.60
6164;DHT22;3114;48.362;10.994;2022-10-15T05:06:38;14.50;43.50
6164;DHT22;3114;48.362;10.994;2022-10-15T05:09:07;14.50;28.90
6164;DHT22;3114;48.362;10.994;2022-10-15T05:11:35;14.50;30.70
6164;DHT22;3114;48.362;10.994;2022-10-15T05:14:03;14.60;22.70
6164;DHT22;3114;48.362;10.994;2022-10-15T05:16:30;14.60;16.40
6164;DHT22;3114;48.362;10.994;2022-10-15T05:18:59;14.60;12.10
6164;DHT22;3114;48.362;10.994;2022-10-15T05:21:27;14.70;34.30
6164;DHT22;3114;48.362;10.994;2022-10-15T05:23:55;14.70;49.10
6164;DHT22;3114;48.362;10.994;2022-10-15T05:26:26;14.70;57.80
6164;DHT22;3114;48.362;10.994;2022-10-15T05:28:54;14.60;41.50
6164;DHT22;3114;48.362;10.994;2022-10-15T05:31:23;14.60;39.40
6164;DHT22;3114;48.362;10.994;2022-10-15T05:33:51;14.70;71.60
6164;DHT22;3114;48.362;10.994;2022-10-15T05:36:21;14.70;73.10
6164;DHT22;3114;48.362;10.994;2022-10-15T05:38:50;14.70;65.40
6164;DHT22;3114;48.362;10.994;2022-10-15T05:41:17;14.70;92.40
6164;DHT22;3114;48.362;10.994;2022-10-15T05:43:47;14.70;91.30
6164;DHT22;3114;48.362;10.994;2022-10-15T05:46:15;14.70;78.10
6164;DHT22;3114;48.362;10.994;2022-10-15T05:48:42;14.70;91.00
6164;DHT22;3114;48.362;10.994;2022-10-15T05:51:11;14.70;76.20
6164;DHT22;3114;48.362;10.994;2022-10-15T05:53:38;14.70;72.70
6164;DHT22;3114;48.362;10.994;2022-10-15T05:56:08;14.70;25.30
6164;DHT22;3114;48.362;10.994;2022-10-15T05:58:35;14.70;16.50
6164;DHT22;3114;48.362;10.994;2022-10-15T06:01:05;14.70;5.60
6164;DHT22;3114;48.362;10.994;2022-10-15T06:03:33;14.70;23.40
6164;DHT22;3114;48.362;10.994;2022-10-15T06:06:00;14.70;54.20
6164;DHT22;3114;48.362;10.994;2022-10-15T06:08:27;14.70;71.30
6164;DHT22;3114;48.362;10.994;2022-10-15T06:10:55;14.80;69.70
6164;DHT22;3114;48.362;10.994;2022-10-15T06:13:23;14.80;91.00
6164;DHT22;3114;48.362;10.994;2022-10-15T06:15:50;14.80;99.90
6164;DHT22;3114;48.362;10.994;2022-10-15T06:18:18;14.80;99.90
6164;DHT22;3114;48.362;10.994;2022-10-15T06:20:50;14.80;99.90
6164;DHT22;3114;48.362;10.994;2022-10-15T06:23:17;14.90;99.90
6164;DHT22;3114;48.362;10.994;2022-10-15T06:25:44;14.90;99.90
6164;DHT22;3114;48.362;10.994;2022-10-15T06:28:11;14.90;99.90
6164;DHT22;3114;48.362;10.994;2022-10-15T06:30:38;14.90;99.90
6164;DHT22;3114;48.362;10.994;2022-10-15T06:33:05;14.90;99.90
6164;DHT22;3114;48.362;10.994;2022-10-15T06:35:33;14.90;99.90
6164;DHT22;3114;48.362;10.994;2022-10-15T06:38:00;14.90;99.90
6164;DHT22;3114;48.362;10.994;2022-10-15T06:40:27;15.00;99.90
6164;DHT22;3114;48.362;10.994;2022-10-15T06:42:54;15.10;99.90
6164;DHT22;3114;48.362;10.994;2022-10-15T06:45:21;15.20;99.90
6164;DHT22;3114;48.362;10.994;2022-10-15T06:47:48;15.20;99.90
6164;DHT22;3114;48.362;10.994;2022-10-15T06:50:15;15.20;99.90
6164;DHT22;3114;48.362;10.994;2022-10-15T06:52:43;15.20;99.90
6164;DHT22;3114;48.362;10.994;2022-10-15T06:55:10;15.30;99.90
6164;DHT22;3114;48.362;10.994;2022-10-15T06:57:37;15.30;99.90
6164;DHT22;3114;48.362;10.994;2022-10-15T07:00:05;15.20;99.90
6164;DHT22;3114;48.362;10.994;2022-10-15T07:02:34;15.20;99.90
6164;DHT22;3114;48.362;10.994;2022-10-15T07:05:01;15.20;99.90
6164;DHT22;3114;48.362;10.994;2022-10-15T07:07:28;15.20;99.90
6164;DHT22;3114;48.362;10.994;2022-10-15T07:09:56;15.40;99.90
6164;DHT22;3114;48.362;10.994;2022-10-15T07:12:23;15.50;99.90
6164;DHT22;3114;48.362;10.994;2022-10-15T07:14:49;15.50;99.90
6164;DHT22;3114;48.362;10.994;2022-10-15T07:17:16;15.50;99.90
6164;DHT22;3114;48.362;10.994;2022-10-15T07:19:43;15.60;99.90
6164;DHT22;3114;48.362;10.994;2022-10-15T07:22:10;15.50;99.90
6164;DHT22;3114;48.362;10.994;2022-10-15T07:24:37;15.50;99.90
6164;DHT22;3114;48.362;10.994;2022-10-15T07:27:05;15.40;99.90
6164;DHT22;3114;48.362;10.994;2022-10-15T07:29:32;15.50;99.90
6164;DHT22;3114;48.362;10.994;2022-10-15T07:31:59;15.40;99.90
6164;DHT22;3114;48.362;10.994;2022-10-15T07:34:26;15.50;99.90
6164;DHT22;3114;48.362;10.994;2022-10-15T07:36:52;15.50;99.90
6164;DHT22;3114;48.362;10.994;2022-10-15T07:39:19;15.60;99.90
6164;DHT22;3114;48.362;10.994;2022-10-15T07:41:46;15.70;99.90
6164;DHT22;3114;48.362;10.994;2022-10-15T07:44:14;15.70;99.90
6164;DHT22;3114;48.362;10.994;2022-10-15T07:46:41;15.60;99.90
6164;DHT22;3114;48.362;10.994;2022-10-15T07:49:08;15.70;99.90
6164;DHT22;3114;48.362;10.994;2022-10-15T07:51:35;15.60;99.90
6164;DHT22;3114;48.362;10.994;2022-10-15T07:54:03;15.50;99.90
6164;DHT22;3114;48.362;10.994;2022-10-15T07:56:30;15.50;99.90
6164;DHT22;3114;48.362;10.994;2022-10-15T07:58:57;15.50;99.90
6164;DHT22;3114;48.362;10.994;2022-10-15T08:01:25;15.60;99.90
6164;DHT22;3114;48.362;10.994;2022-10-15T08:03:52;15.60;99.90
6164;DHT22;3114;48.362;10.994;2022-10-15T08:06:18;15.60;99.90
6164;DHT22;3114;48.362;10.994;2022-10-15T08:08:45;15.70;99.90
6164;DHT22;3114;48.362;10.994;2022-10-15T08:11:14;15.80;99.90
6164;DHT22;3114;48.362;10.994;2022-10-15T08:13:42;15.80;99.90
6164;DHT22;3114;48.362;10.994;2022-10-15T08:16:10;15.80;99.90
6164;DHT22;3114;48.362;10.994;2022-10-15T08:18:39;15.80;99.90
6164;DHT22;3114;48.362;10.994;2022-10-15T08:21:07;15.80;99.90
6164;DHT22;3114;48.362;10.994;2022-10-15T08:23:34;15.80;99.90
6164;DHT22;3114;48.362;10.994;2022-10-15T08:26:02;15.80;99.90
6164;DHT22;3114;48.362;10.994;2022-10-15T08:28:30;15.70;99.90
6164;DHT22;3114;48.362;10.994;2022-10-15T08:30:57;15.60;99.90
6164;DHT22;3114;48.362;10.994;2022-10-15T08:33:24;15.60;99.90
6164;DHT22;3114;48.362;10.994;2022-10-15T08:35:53;15.60;99.90
6164;DHT22;3114;48.362;10.994;2022-10-15T08:38:20;15.60;99.90
6164;DHT22;3114;48.362;10.994;2022-10-15T08:40:48;15.60;99.90
6164;DHT22;3114;48.362;10.994;2022-10-15T08:43:19;15.60;99.90
6164;DHT22;3114;48.362;10.994;2022-10-15T08:45:53;15.70;99.90
6164;DHT22;3114;48.362;10.994;2022-10-15T08:48:26;15.80;99.90
6164;DHT22;3114;48.362;10.994;2022-10-15T08:51:00;15.90;99.90
6164;DHT22;3114;48.362;10.994;2022-10-15T08:53:27;15.80;99.90
6164;DHT22;3114;48.362;10.994;2022-10-15T08:55:58;15.80;99.90
6164;DHT22;3114;48.362;10.994;2022-10-15T08:58:33;15.80;99.90
6164;DHT22;3114;48.362;10.994;2022-10-15T09:01:04;15.70;99.90
6164;DHT22;3114;48.362;10.994;2022-10-15T09:03:37;15.70;99.90
6164;DHT22;3114;48.362;10.994;2022-10-15T09:06:11;15.70;99.90
6164;DHT22;3114;48.362;10.994;2022-10-15T09:08:50;15.60;99.90
6164;DHT22;3114;48.362;10.994;2022-10-15T09:11:26;15.50;99.90
6164;DHT22;3114;48.362;10.994;2022-10-15T09:13:57;15.60;99.90
6164;DHT22;3114;48.362;10.994;2022-10-15T09:16:31;15.40;99.90
6164;DHT22;3114;48.362;10.994;2022-10-15T09:19:03;15.40;99.90
6164;DHT22;3114;48.362;10.994;2022-10-15T09:21:35;15.40;99.90
6164;DHT22;3114;48.362;10.994;2022-10-15T09:24:03;15.40;99.90
6164;DHT22;3114;48.362;10.994;2022-10-15T09:26:36;15.50;99.90
6164;DHT22;3114;48.362;10.994;2022-10-15T09:29:17;15.60;99.90
6164;DHT22;3114;48.362;10.994;2022-10-15T09:31:52;15.70;99.90
6164;DHT22;3114;48.362;10.994;2022-10-15T09:34:27;15.90;99.90
6164;DHT22;3114;48.362;10.994;2022-10-15T09:37:00;16.00;99.90
6164;DHT22;3114;48.362;10.994;2022-10-15T09:39:42;16.00;99.90
6164;DHT22;3114;48.362;10.994;2022-10-15T09:42:22;16.00;99.90
6164;DHT22;3114;48.362;10.994;2022-10-15T09:44:53;16.20;99.90
6164;DHT22;3114;48.362;10.994;2022-10-15T09:47:25;16.30;99.90
6164;DHT22;3114;48.362;10.994;2022-10-15T09:49:55;16.70;99.90
6164;DHT22;3114;48.362;10.994;2022-10-15T09:52:32;16.80;99.90
6164;DHT22;3114;48.362;10.994;2022-10-15T09:55:22;16.90;99.90
6164;DHT22;3114;48.362;10.994;2022-10-15T09:57:55;17.10;99.90
6164;DHT22;3114;48.362;10.994;2022-10-15T10:00:24;17.10;99.90
6164;DHT22;3114;48.362;10.994;2022-10-15T10:03:03;17.20;99.90
6164;DHT22;3114;48.362;10.994;2022-10-15T10:05:33;17.30;99.90
6164;DHT22;3114;48.362;10.994;2022-10-15T10:08:16;17.30;99.90
6164;DHT22;3114;48.362;10.994;2022-10-15T10:10:53;17.60;99.90
6164;DHT22;3114;48.362;10.994;2022-10-15T10:13:23;17.70;99.90
6164;DHT22;3114;48.362;10.994;2022-10-15T10:15:52;17.50;99.90
6164;DHT22;3114;48.362;10.994;2022-10-15T10:18:21;17.70;99.90
6164;DHT22;3114;48.362;10.994;2022-10-15T10:20:54;17.80;99.90
6164;DHT22;3114;48.362;10.994;2022-10-15T10:23:29;17.90;99.90
6164;DHT22;3114;48.362;10.994;2022-10-15T10:25:57;17.90;99.90
6164;DHT22;3114;48.362;10.994;2022-10-15T10:28:28;18.00;99.90
6164;DHT22;3114;48.362;10.994;2022-10-15T10:31:03;18.20;99.90
6164;DHT22;3114;48.362;10.994;2022-10-15T10:33:35;18.10;99.90
6164;DHT22;3114;48.362;10.994;2022-10-15T10:36:04;18.10;99.90
6164;DHT22;3114;48.362;10.994;2022-10-15T10:38:34;18.20;99.90
6164;DHT22;3114;48.362;10.994;2022-10-15T10:41:04;18.20;99.90
6164;DHT22;3114;48.362;10.994;2022-10-15T10:43:34;18.30;99.90
6164;DHT22;3114;48.362;10.994;2022-10-15T10:46:04;18.40;99.90
6164;DHT22;3114;48.362;10.994;2022-10-15T10:48:39;18.40;99.90
6164;DHT22;3114;48.362;10.994;2022-10-15T10:51:12;18.80;99.90
6164;DHT22;3114;48.362;10.994;2022-10-15T10:53:47;18.60;99.90
6164;DHT22;3114;48.362;10.994;2022-10-15T10:56:16;18.40;99.90
6164;DHT22;3114;48.362;10.994;2022-10-15T10:58:43;18.50;99.90
6164;DHT22;3114;48.362;10.994;2022-10-15T11:01:11;18.50;99.90
6164;DHT22;3114;48.362;10.994;2022-10-15T11:03:39;18.40;99.90
6164;DHT22;3114;48.362;10.994;2022-10-15T11:06:52;18.90;99.90
6164;DHT22;3114;48.362;10.994;2022-10-15T11:09:40;19.50;99.90
6164;DHT22;3114;48.362;10.994;2022-10-15T11:12:29;19.30;99.90
6164;DHT22;3114;48.362;10.994;2022-10-15T11:15:11;20.80;99.90
6164;DHT22;3114;48.362;10.994;2022-10-15T11:17:49;21.20;99.90
6164;DHT22;3114;48.362;10.994;2022-10-15T11:20:21;20.20;99.90
6164;DHT22;3114;48.362;10.994;2022-10-15T11:23:01;20.00;99.90
6164;DHT22;3114;48.362;10.994;2022-10-15T11:25:39;21.70;99.90
6164;DHT22;3114;48.362;10.994;2022-10-15T11:28:18;22.90;99.90
6164;DHT22;3114;48.362;10.994;2022-10-15T11:30:53;24.40;99.90
6164;DHT22;3114;48.362;10.994;2022-10-15T11:33:40;25.30;99.90
6164;DHT22;3114;48.362;10.994;2022-10-15T11:36:22;23.30;99.90
6164;DHT22;3114;48.362;10.994;2022-10-15T11:39:05;22.40;99.90
6164;DHT22;3114;48.362;10.994;2022-10-15T11:41:45;22.50;99.90
6164;DHT22;3114;48.362;10.994;2022-10-15T11:44:33;22.80;99.90
6164;DHT22;3114;48.362;10.994;2022-10-15T11:47:12;21.20;99.90
6164;DHT22;3114;48.362;10.994;2022-10-15T11:49:49;20.10;99.90
6164;DHT22;3114;48.362;10.994;2022-10-15T11:52:28;19.80;99.90
6164;DHT22;3114;48.362;10.994;2022-10-15T11:55:03;20.00;99.90
6164;DHT22;3114;48.362;10.994;2022-10-15T11:57:36;19.50;99.90
6164;DHT22;3114;48.362;10.994;2022-10-15T12:00:14;19.30;99.90
6164;DHT22;3114;48.362;10.994;2022-10-15T12:02:44;19.10;99.90
6164;DHT22;3114;48.362;10.994;2022-10-15T12:05:17;19.20;99.90
6164;DHT22;3114;48.362;10.994;2022-10-15T12:07:46;19.80;99.90
6164;DHT22;3114;48.362;10.994;2022-10-15T12:10:26;19.50;99.90
6164;DHT22;3114;48.362;10.994;2022-10-15T12:13:01;19.50;99.90
6164;DHT22;3114;48.362;10.994;2022-10-15T12:15:37;18.90;99.90
6164;DHT22;3114;48.362;10.994;2022-10-15T12:18:12;18.90;99.90
6164;DHT22;3114;48.362;10.994;2022-10-15T12:20:43;20.40;99.90
6164;DHT22;3114;48.362;10.994;2022-10-15T12:23:22;21.60;99.90
6164;DHT22;3114;48.362;10.994;2022-10-15T12:25:52;21.80;99.90
6164;DHT22;3114;48.362;10.994;2022-10-15T12:28:23;23.20;99.90
6164;DHT22;3114;48.362;10.994;2022-10-15T12:31:01;24.90;99.90
6164;DHT22;3114;48.362;10.994;2022-10-15T12:33:32;24.30;99.90
6164;DHT22;3114;48.362;10.994;2022-10-15T12:36:01;24.60;99.90
6164;DHT22;3114;48.362;10.994;2022-10-15T12:38:35;24.20;99.90
6164;DHT22;3114;48.362;10.994;2022-10-15T12:41:06;23.90;99.90
6164;DHT22;3114;48.362;10.994;2022-10-15T12:43:38;24.00;99.90
6164;DHT22;3114;48.362;10.994;2022-10-15T12:46:08;23.50;99.90
6164;DHT22;3114;48.362;10.994;2022-10-15T12:48:37;23.70;99.90
6164;DHT22;3114;48.362;10.994;2022-10-15T12:51:39;23.10;99.90
6164;DHT22;3114;48.362;10.994;2022-10-15T12:54:33;22.10;99.90
6164;DHT22;3114;48.362;10.994;2022-10-15T12:57:01;20.90;99.90
6164;DHT22;3114;48.362;10.994;2022-10-15T12:59:54;20.80;99.90
6164;DHT22;3114;48.362;10.994;2022-10-15T13:02:34;20.10;99.90
6164;DHT22;3114;48.362;10.994;2022-10-15T13:05:23;19.90;99.90
6164;DHT22;3114;48.362;10.994;2022-10-15T13:07:51;19.60;99.90
6164;DHT22;3114;48.362;10.994;2022-10-15T13:10:22;20.10;99.90
6164;DHT22;3114;48.362;10.994;2022-10-15T13:12:52;20.50;99.90
6164;DHT22;3114;48.362;10.994;2022-10-15T13:15:22;21.00;99.90
6164;DHT22;3114;48.362;10.994;2022-10-15T13:17:49;21.40;99.90
6164;DHT22;3114;48.362;10.994;2022-10-15T13:20:32;22.30;99.90
6164;DHT22;3114;48.362;10.994;2022-10-15T13:23:16;22.80;99.90
6164;DHT22;3114;48.362;10.994;2022-10-15T13:25:43;23.40;99.90
6164;DHT22;3114;48.362;10.994;2022-10-15T13:28:35;23.60;99.90
6164;DHT22;3114;48.362;10.994;2022-10-15T13:31:07;23.00;99.90
6164;DHT22;3114;48.362;10.994;2022-10-15T13:33:40;23.00;99.90
6164;DHT22;3114;48.362;10.994;2022-10-15T13:36:08;22.40;99.90
6164;DHT22;3114;48.362;10.994;2022-10-15T13:38:41;21.50;99.90
6164;DHT22;3114;48.362;10.994;2022-10-15T13:41:08;20.90;99.90
6164;DHT22;3114;48.362;10.994;2022-10-15T13:43:35;20.10;99.90
6164;DHT22;3114;48.362;10.994;2022-10-15T13:46:01;19.70;99.90
6164;DHT22;3114;48.362;10.994;2022-10-15T13:48:31;19.50;99.90
6164;DHT22;3114;48.362;10.994;2022-10-15T13:51:02;19.50;99.90
6164;DHT22;3114;48.362;10.994;2022-10-15T13:53:32;19.60;99.90
6164;DHT22;3114;48.362;10.994;2022-10-15T13:56:13;20.00;99.90
6164;DHT22;3114;48.362;10.994;2022-10-15T13:58:42;20.90;99.90
6164;DHT22;3114;48.362;10.994;2022-10-15T14:01:14;21.80;99.90
6164;DHT22;3114;48.362;10.994;2022-10-15T14:03:47;21.60;99.90
6164;DHT22;3114;48.362;10.994;2022-10-15T14:06:18;21.20;99.90
6164;DHT22;3114;48.362;10.994;2022-10-15T14:08:47;20.90;99.90
6164;DHT22;3114;48.362;10.994;2022-10-15T14:11:15;20.50;99.90
6164;DHT22;3114;48.362;10.994;2022-10-15T14:13:46;20.70;99.90
6164;DHT22;3114;48.362;10.994;2022-10-15T14:16:19;20.70;99.90
6164;DHT22;3114;48.362;10.994;2022-10-15T14:18:49;20.30;99.90
6164;DHT22;3114;48.362;10.994;2022-10-15T14:21:18;20.20;99.90
6164;DHT22;3114;48.362;10.994;2022-10-15T14:23:46;20.20;99.90
6164;DHT22;3114;48.362;10.994;2022-10-15T14:26:14;20.30;99.90
6164;DHT22;3114;48.362;10.994;2022-10-15T14:28:47;20.40;99.90
6164;DHT22;3114;48.362;10.994;2022-10-15T14:31:29;20.30;99.90
6164;DHT22;3114;48.362;10.994;2022-10-15T14:33:58;20.30;99.90
6164;DHT22;3114;48.362;10.994;2022-10-15T14:36:27;19.80;99.90
6164;DHT22;3114;48.362;10.994;2022-10-15T14:39:25;19.70;99.90
6164;DHT22;3114;48.362;10.994;2022-10-15T14:41:57;19.40;99.90
6164;DHT22;3114;48.362;10.994;2022-10-15T14:44:24;19.20;99.90
6164;DHT22;3114;48.362;10.994;2022-10-15T14:46:59;19.20;99.90
6164;DHT22;3114;48.362;10.994;2022-10-15T14:49:30;19.30;99.90
6164;DHT22;3114;48.362;10.994;2022-10-15T14:52:02;19.30;99.90
6164;DHT22;3114;48.362;10.994;2022-10-15T14:54:37;19.30;99.90
6164;DHT22;3114;48.362;10.994;2022-10-15T14:57:15;19.30;99.90
6164;DHT22;3114;48.362;10.994;2022-10-15T14:59:43;19.20;99.90
6164;DHT22;3114;48.362;10.994;2022-10-15T15:02:14;19.40;99.90
6164;DHT22;3114;48.362;10.994;2022-10-15T15:04:44;19.40;99.90
6164;DHT22;3114;48.362;10.994;2022-10-15T15:07:15;19.40;99.90
6164;DHT22;3114;48.362;10.994;2022-10-15T15:09:45;19.10;99.90
6164;DHT22;3114;48.362;10.994;2022-10-15T15:12:16;19.10;99.90
6164;DHT22;3114;48.362;10.994;2022-10-15T15:14:43;19.20;99.90
6164;DHT22;3114;48.362;10.994;2022-10-15T15:17:18;19.00;99.90
6164;DHT22;3114;48.362;10.994;2022-10-15T15:19:46;19.20;99.90
6164;DHT22;3114;48.362;10.994;2022-10-15T15:22:15;18.90;99.90
6164;DHT22;3114;48.362;10.994;2022-10-15T15:24:43;19.00;99.90
6164;DHT22;3114;48.362;10.994;2022-10-15T15:27:20;18.90;99.90
6164;DHT22;3114;48.362;10.994;2022-10-15T15:29:48;18.70;99.90
6164;DHT22;3114;48.362;10.994;2022-10-15T15:32:15;18.80;99.90
6164;DHT22;3114;48.362;10.994;2022-10-15T15:34:42;18.80;99.90
6164;DHT22;3114;48.362;10.994;2022-10-15T15:37:13;18.80;99.90
6164;DHT22;3114;48.362;10.994;2022-10-15T15:39:41;18.80;99.90
6164;DHT22;3114;48.362;10.994;2022-10-15T15:42:11;18.80;99.90
6164;DHT22;3114;48.362;10.994;2022-10-15T15:44:38;18.80;99.90
6164;DHT22;3114;48.362;10.994;2022-10-15T15:47:05;18.90;99.90
6164;DHT22;3114;48.362;10.994;2022-10-15T15:49:32;18.70;99.90
6164;DHT22;3114;48.362;10.994;2022-10-15T15:51:59;18.80;99.90
6164;DHT22;3114;48.362;10.994;2022-10-15T15:54:27;18.80;99.90
6164;DHT22;3114;48.362;10.994;2022-10-15T15:56:54;18.70;99.90
6164;DHT22;3114;48.362;10.994;2022-10-15T15:59:21;18.70;99.90
6164;DHT22;3114;48.362;10.994;2022-10-15T16:01:48;18.70;99.90
6164;DHT22;3114;48.362;10.994;2022-10-15T16:04:14;18.80;99.90
6164;DHT22;3114;48.362;10.994;2022-10-15T16:06:41;18.70;99.90